To NAV CANADA Home Page Login to a new session Search on AWWS site Feedback and Comments Disclaimer Vers la page française équivalente Tips FAQ What's new on the site To the Forecasts and Observations / NOTAM section To "File a Flight Plan" website Publications and other links Update of the User's profile FIC Telephone Numbers My Weather Data Folder Route Weather Data Regional Weather Data Local Weather Data To the Forecasts and Observations / NOTAM section
Request Generated 07/23/2016 at 15:03:49 UTC . Weather information available at that time is displayed.

METAR/TAF

WINNIPEG/JAMES ARMSTRONG RICHARDSON INTL/MB    

METAR CYWG 231500Z 17006KT 15SM -RA BKN080 OVC150 18/17 A2988 RMK
AC6AC2 SLP122 DENSITY ALT 1300FT=
METAR CYWG 231400Z 16009KT 15SM -RA BKN070 OVC150 19/15 A2989 RMK
AC7AC1 SLP123 DENSITY ALT 1400FT=
SPECI CYWG 231347Z 16010G16KT 15SM -RA BKN084 OVC150 20/14 A2989 RMK
AC7AC1 SLP122 DENSITY ALT 1500FT=
METAR CYWG 231300Z 13010KT 15SM BKN061 BKN150 OVC250 21/14 A2987 RMK
SC5AC2CI1 SLP115 DENSITY ALT 1600FT=

TAF CYWG 231138Z 2312/2412 13012KT P6SM FEW060 BKN150 BKN250
FM231400 13010KT P6SM SCT060 BKN100 OVC220 PROB30 2314/2316 4SM
TSRA BKN060CB
FM231800 17008KT P6SM -SHRA BKN060 PROB40 2318/2324 VRB20G30KT
3SM TSRA BKN050CB
FM240000 17008KT P6SM SCT020 BKN040
FM240300 26008KT P6SM SCT040
BECMG 2404/2406 26015G25KT
RMK NXT FCST BY 231800Z=
Your time UTC time
Weather data provided by Environment Canada and NAV CANADA